»·PEaware :: DAL229 KSLC-KLAX

DAL229 :: KSLC-KLAX

FLIGHT INFORMATION

Flight Status: Arrived
Operator:
Delta Air Lines
More flights by this operator :: More flights under this callsign
Pilot: Max W. (2591)
Aircraft: AIRBUS A320
(A320)
More flights by this aircraft type
Origin: KSLC Salt Lake City Intl
United States
Destination: KLAX Los Angeles Intl
United States
More flights between these airports :: More routes between these airports
Route: +ARCHZ1 WINEN LAKRR Q73 HAKMN ANJLL4
File this flight plan on PilotEdge
Remarks:
Altitude:
(Current/Filed)
36,000ft
Speed:
(Current/Filed)
450kts
Departed: 08-Sep-18 05:50 PM
Arrived: 08-Sep-18 07:19 PM
Distance/Time
Traveled:
512nm/1:29
Distance/Time
To Go:
Arrived

Flight Plot

Page will automatically refresh every two minutes.

Flight plan parsing failed; only flown route is shown


Map Options




Map Legend


Flown Route
Filed Route
Departure Airport
Arrival Airport
Navaid (VOR, NDB)
Fix

Horizontal Profiles

Position Reports

Time Latitude Longitude Heading Altitude Ground
Speed
08-Sep-18 17:08 40.788452 -111.985372 72 4236ft 0kts
08-Sep-18 17:09 40.788452 -111.985372 72 4236ft 0kts
08-Sep-18 17:10 40.788452 -111.985372 72 4236ft 0kts
08-Sep-18 17:11 40.788452 -111.985372 72 4236ft 0kts
08-Sep-18 17:12 40.788452 -111.985372 72 4236ft 0kts
08-Sep-18 17:13 40.788452 -111.985372 72 4236ft 0kts
08-Sep-18 17:14 40.788452 -111.985372 72 4236ft 0kts
08-Sep-18 17:15 40.788452 -111.985372 72 4236ft 0kts
08-Sep-18 17:16 40.788452 -111.985372 71 4236ft 0kts
08-Sep-18 17:17 40.788452 -111.985372 72 4236ft 0kts
08-Sep-18 17:18 40.788452 -111.985373 72 4236ft 0kts
08-Sep-18 17:19 40.788452 -111.985373 72 4236ft 0kts
08-Sep-18 17:20 40.788452 -111.985373 72 4236ft 0kts
08-Sep-18 17:21 40.788452 -111.985373 72 4236ft 0kts
08-Sep-18 17:22 40.788452 -111.985373 72 4236ft 0kts
08-Sep-18 17:23 40.788308 -111.985957 72 4236ft 2kts
08-Sep-18 17:24 40.788118 -111.986390 17 4236ft 2kts
08-Sep-18 17:25 40.787913 -111.986368 340 4236ft 0kts
08-Sep-18 17:26 40.787913 -111.986368 340 4236ft 0kts
08-Sep-18 17:27 40.788103 -111.986442 344 4236ft 9kts
08-Sep-18 17:28 40.789903 -111.986037 21 4236ft 3kts
08-Sep-18 17:29 40.790218 -111.986024 350 4236ft 0kts
08-Sep-18 17:30 40.790218 -111.986024 350 4236ft 0kts
08-Sep-18 17:31 40.790218 -111.986024 350 4236ft 0kts
08-Sep-18 17:32 40.790218 -111.986024 350 4236ft 0kts
08-Sep-18 17:33 40.790218 -111.986024 350 4236ft 0kts
08-Sep-18 17:34 40.791318 -111.989004 264 4236ft 20kts
08-Sep-18 17:35 40.790963 -111.993680 257 4236ft 12kts
08-Sep-18 17:36 40.785767 -111.993594 173 4236ft 22kts
08-Sep-18 17:37 40.779563 -111.992744 172 4236ft 22kts
08-Sep-18 17:38 40.775757 -111.993055 264 4236ft 0kts
08-Sep-18 17:39 40.775757 -111.993055 264 4236ft 0kts
08-Sep-18 17:40 40.775757 -111.993055 264 4236ft 0kts
08-Sep-18 17:41 40.775757 -111.993059 265 4236ft 0kts
08-Sep-18 17:42 40.775757 -111.993066 265 4236ft 0kts
08-Sep-18 17:43 40.775757 -111.993066 265 4236ft 0kts
08-Sep-18 17:44 40.775757 -111.993066 265 4236ft 0kts
08-Sep-18 17:45 40.775756 -111.993067 265 4236ft 0kts
08-Sep-18 17:46 40.775756 -111.993070 265 4236ft 0kts
08-Sep-18 17:47 40.775450 -111.993974 221 4236ft 0kts
08-Sep-18 17:48 40.775450 -111.993974 221 4236ft 0kts
08-Sep-18 17:49 40.775450 -111.993974 221 4236ft 0kts
08-Sep-18 17:50 40.775450 -111.993974 221 4236ft 0kts
08-Sep-18 17:51 40.775382 -111.995485 319 4236ft 8kts
08-Sep-18 17:52 40.788533 -111.997065 354 4236ft 146kts
08-Sep-18 17:53 40.827507 -112.022167 279 6097ft 180kts
08-Sep-18 17:54 40.820133 -112.097436 245 7252ft 245kts
08-Sep-18 17:55 40.786334 -112.187041 245 8931ft 290kts
08-Sep-18 17:56 40.752359 -112.263286 220 10657ft 312kts
08-Sep-18 17:57 40.660563 -112.292786 190 11612ft 368kts
08-Sep-18 17:58 40.558232 -112.314690 197 13498ft 377kts
08-Sep-18 17:59 40.457282 -112.355732 200 15326ft 384kts
08-Sep-18 17:59 40.371752 -112.390622 201 16746ft 391kts
08-Sep-18 18:01 40.249923 -112.440189 201 18587ft 399kts
08-Sep-18 18:02 40.146786 -112.492829 213 20029ft 400kts
08-Sep-18 18:02 40.064901 -112.550482 213 21216ft 404kts
08-Sep-18 18:03 39.965462 -112.620254 213 22463ft 410kts
08-Sep-18 18:05 39.849006 -112.701682 213 23809ft 417kts
08-Sep-18 18:05 39.764493 -112.760577 213 24722ft 421kts
08-Sep-18 18:06 39.658620 -112.827856 204 25743ft 435kts
08-Sep-18 18:07 39.542524 -112.874117 204 26676ft 440kts
08-Sep-18 18:08 39.425096 -112.920794 204 27545ft 444kts
08-Sep-18 18:09 39.306483 -112.967788 204 28333ft 448kts
08-Sep-18 18:11 39.187635 -113.014675 205 29300ft 446kts
08-Sep-18 18:12 39.070389 -113.060789 205 30298ft 441kts
08-Sep-18 18:13 38.953588 -113.106589 204 31186ft 439kts
08-Sep-18 18:14 38.839862 -113.151039 203 31858ft 440kts
08-Sep-18 18:15 38.724027 -113.196136 203 32599ft 439kts
08-Sep-18 18:16 38.607621 -113.241309 203 33281ft 437kts
08-Sep-18 18:17 38.495576 -113.284489 204 35223ft 403kts
08-Sep-18 18:18 38.388463 -113.325928 204 35661ft 406kts
08-Sep-18 18:19 38.280121 -113.367610 204 36002ft 411kts
08-Sep-18 18:20 38.169608 -113.409976 204 36099ft 421kts
08-Sep-18 18:21 38.056516 -113.453163 203 36152ft 430kts
08-Sep-18 18:22 37.941106 -113.497105 204 36146ft 438kts
08-Sep-18 18:23 37.829520 -113.545279 206 36145ft 439kts
08-Sep-18 18:24 37.714319 -113.595305 206 36131ft 440kts
08-Sep-18 18:25 37.599046 -113.645214 206 36041ft 440kts
08-Sep-18 18:26 37.486180 -113.693922 205 35955ft 440kts
08-Sep-18 18:27 37.370906 -113.743521 205 35942ft 440kts
08-Sep-18 18:28 37.255687 -113.792925 205 35939ft 440kts
08-Sep-18 18:29 37.139919 -113.842407 205 35934ft 440kts
08-Sep-18 18:30 37.024247 -113.891704 203 35889ft 444kts
08-Sep-18 18:31 36.906513 -113.941714 202 35894ft 453kts
08-Sep-18 18:32 36.790390 -113.990858 202 35966ft 457kts
08-Sep-18 18:33 36.669896 -114.041684 202 35992ft 458kts
08-Sep-18 18:34 36.549681 -114.092232 202 35967ft 458kts
08-Sep-18 18:35 36.429678 -114.142527 202 35916ft 458kts
08-Sep-18 18:36 36.309027 -114.192936 202 35884ft 457kts
08-Sep-18 18:37 36.188941 -114.242939 202 35863ft 457kts
08-Sep-18 18:38 36.074764 -114.305863 222 35866ft 448kts
08-Sep-18 18:39 35.990714 -114.417408 231 35873ft 443kts
08-Sep-18 18:40 35.908887 -114.530400 231 35858ft 443kts
08-Sep-18 18:41 35.831814 -114.636527 231 35853ft 442kts
08-Sep-18 18:42 35.753388 -114.744193 230 35859ft 443kts
08-Sep-18 18:43 35.671029 -114.856884 230 35869ft 443kts
08-Sep-18 18:44 35.588956 -114.969152 230 35872ft 443kts
08-Sep-18 18:45 35.506857 -115.081124 231 35909ft 442kts
08-Sep-18 18:46 35.423099 -115.190644 229 35932ft 440kts
08-Sep-18 18:47 35.340006 -115.298850 229 35905ft 438kts
08-Sep-18 18:48 35.256702 -115.407011 230 35888ft 437kts
08-Sep-18 18:49 35.173521 -115.514767 230 35899ft 437kts
08-Sep-18 18:50 35.090165 -115.622110 229 35911ft 437kts
08-Sep-18 18:51 35.007968 -115.727112 229 35941ft 439kts
08-Sep-18 18:52 34.923669 -115.834489 228 35946ft 438kts
08-Sep-18 18:53 34.842896 -115.937053 228 35953ft 440kts
08-Sep-18 18:54 34.758897 -116.043485 228 35952ft 439kts
08-Sep-18 18:55 34.674999 -116.150396 228 35382ft 439kts
08-Sep-18 18:56 34.595909 -116.250815 228 33369ft 440kts
08-Sep-18 18:57 34.529756 -116.334597 228 31265ft 446kts
08-Sep-18 18:58 34.443557 -116.443428 227 28625ft 449kts
08-Sep-18 18:59 34.379682 -116.567436 244 26515ft 434kts
08-Sep-18 19:00 34.330475 -116.686633 244 25410ft 395kts
08-Sep-18 19:01 34.285243 -116.799331 244 23701ft 383kts
08-Sep-18 19:02 34.239307 -116.913281 244 21903ft 373kts
08-Sep-18 19:03 34.199503 -117.026207 252 20070ft 364kts
08-Sep-18 19:04 34.168558 -117.140463 253 18270ft 356kts
08-Sep-18 19:05 34.137817 -117.252443 252 16475ft 349kts
08-Sep-18 19:06 34.107701 -117.361565 252 14712ft 343kts
08-Sep-18 19:07 34.080148 -117.470330 254 13034ft 334kts
08-Sep-18 19:08 34.054588 -117.571212 253 12018ft 293kts
08-Sep-18 19:09 34.031880 -117.659956 253 10904ft 283kts
08-Sep-18 19:10 34.017154 -117.748713 263 9833ft 269kts
08-Sep-18 19:11 34.008562 -117.837145 263 8617ft 264kts
08-Sep-18 19:12 34.000130 -117.923181 263 7531ft 250kts
08-Sep-18 19:13 33.993051 -118.002625 265 6640ft 235kts
08-Sep-18 19:14 33.985619 -118.082006 262 5220ft 234kts
08-Sep-18 19:15 33.977584 -118.155605 262 4148ft 211kts
08-Sep-18 19:16 33.971524 -118.214186 262 3179ft 182kts
08-Sep-18 19:17 33.966261 -118.264788 262 2339ft 150kts
08-Sep-18 19:18 33.961155 -118.314149 262 1580ft 147kts
08-Sep-18 19:19 33.956144 -118.362669 262 799ft 145kts
08-Sep-18 19:20 33.951272 -118.410228 262 128ft 121kts
08-Sep-18 19:21 33.949317 -118.419352 234 125ft 0kts
08-Sep-18 19:22 33.946998 -118.420625 81 124ft 15kts
08-Sep-18 19:23 33.947637 -118.414173 78 127ft 6kts

Navigation Log

Ident Type
Flight plan parsing failed, navigation log unavailable